Time;durP1;ratioP1;P1;durP2;ratioP2;P2;SDS_P1;SDS_P2;PMS_P1;PMS_P2;Temp;Humidity;BMP_temperature;BMP_pressure;BME280_temperature;BME280_humidity;BME280_pressure;Samples;Min_cycle;Max_cycle;Signal;HPM_P1;HPM_P2
2022/10/16 00:00:55;;;;;;;8.05;2.10;;;;;;;;;;6157817;23;20002;-79
2022/10/16 00:03:42;;;;;;;5.95;1.45;;;;;;;;;;6147047;23;20014;-79
2022/10/16 00:06:31;;;;;;;6.90;1.50;;;;;;;;;;6146820;23;20002;-70
2022/10/16 00:09:16;;;;;;;7.00;1.65;;;;;;;;;;6147665;23;20330;-80
2022/10/16 00:12:03;;;;;;;8.13;2.03;;;;;;;;;;6147702;23;20422;-82
2022/10/16 00:14:48;;;;;;;4.35;1.67;;;;;;;;;;6147832;23;20016;-81
2022/10/16 00:17:34;;;;;;;5.57;2.13;;;;;;;;;;6147487;23;20041;-79
2022/10/16 00:20:19;;;;;;;7.50;1.90;;;;;;;;;;6146703;23;20006;-79
2022/10/16 00:23:04;;;;;;;5.40;1.75;;;;;;;;;;6126482;23;20002;-80
2022/10/16 00:26:00;;;;;;;5.13;1.70;;;;;;;;;;6146216;23;20433;-72
2022/10/16 00:28:46;;;;;;;8.40;2.20;;;;;;;;;;6126011;23;20010;-71
2022/10/16 00:31:32;;;;;;;7.05;1.88;;;;;;;;;;6152272;23;20004;-71
2022/10/16 00:34:17;;;;;;;3.60;1.73;;;;;;;;;;6145797;23;20010;-71
2022/10/16 00:37:02;;;;;;;6.28;1.98;;;;;;;;;;6146167;23;19997;-72
2022/10/16 00:39:48;;;;;;;8.80;1.70;;;;;;;;;;6146902;23;20071;-71
2022/10/16 00:42:33;;;;;;;5.93;2.00;;;;;;;;;;6146555;23;20077;-70
2022/10/16 00:45:18;;;;;;;9.55;2.00;;;;;;;;;;6145975;23;20002;-72
2022/10/16 00:48:03;;;;;;;5.13;2.15;;;;;;;;;;6143873;23;20393;-72
2022/10/16 00:50:49;;;;;;;8.70;1.92;;;;;;;;;;6145472;23;20413;-71
2022/10/16 00:53:35;;;;;;;10.55;2.25;;;;;;;;;;6147133;23;20010;-73
2022/10/16 00:56:20;;;;;;;6.28;2.13;;;;;;;;;;6147849;23;20006;-71
2022/10/16 00:59:07;;;;;;;14.57;2.38;;;;;;;;;;6148216;23;20012;-72
2022/10/16 01:01:53;;;;;;;12.00;2.22;;;;;;;;;;6168749;23;20013;-72
2022/10/16 01:04:44;;;;;;;9.18;2.05;;;;;;;;;;6153831;23;20024;-73
2022/10/16 01:07:38;;;;;;;7.28;2.20;;;;;;;;;;6147965;23;20006;-71
2022/10/16 01:10:31;;;;;;;3.17;1.60;;;;;;;;;;6148006;23;20005;-71
2022/10/16 01:13:27;;;;;;;5.38;1.70;;;;;;;;;;6147329;23;20013;-73
2022/10/16 01:16:20;;;;;;;6.18;2.45;;;;;;;;;;6147977;23;20037;-72
2022/10/16 01:19:11;;;;;;;6.22;2.55;;;;;;;;;;6147676;23;20035;-67
2022/10/16 01:21:58;;;;;;;7.70;2.10;;;;;;;;;;6147858;23;20013;-69
2022/10/16 01:24:49;;;;;;;8.48;2.03;;;;;;;;;;6147723;23;20005;-71
2022/10/16 01:27:35;;;;;;;5.80;1.60;;;;;;;;;;6127139;23;20013;-71
2022/10/16 01:30:23;;;;;;;13.07;1.60;;;;;;;;;;6148278;23;20102;-70
2022/10/16 01:33:11;;;;;;;4.65;1.83;;;;;;;;;;6147924;22;20014;-69
2022/10/16 01:36:00;;;;;;;3.67;1.80;;;;;;;;;;6155694;23;20037;-70
2022/10/16 01:38:47;;;;;;;8.93;2.35;;;;;;;;;;6147708;23;20009;-69
2022/10/16 01:41:40;;;;;;;6.40;1.73;;;;;;;;;;6127025;23;20036;-70
2022/10/16 01:44:28;;;;;;;8.77;2.03;;;;;;;;;;6147296;23;20298;-70
2022/10/16 01:47:15;;;;;;;8.10;2.42;;;;;;;;;;6147574;23;20005;-69
2022/10/16 01:50:02;;;;;;;5.63;2.35;;;;;;;;;;6147589;23;20063;-70
2022/10/16 01:52:49;;;;;;;10.70;2.17;;;;;;;;;;6147209;23;20010;-70
2022/10/16 01:55:37;;;;;;;8.27;1.98;;;;;;;;;;6147564;23;20106;-69
2022/10/16 01:58:23;;;;;;;5.82;2.00;;;;;;;;;;6147674;23;20453;-83
2022/10/16 02:01:10;;;;;;;10.85;2.03;;;;;;;;;;6148233;23;20005;-80
2022/10/16 02:03:57;;;;;;;3.20;1.80;;;;;;;;;;6147444;23;20006;-79
2022/10/16 02:06:42;;;;;;;6.18;1.90;;;;;;;;;;6150618;23;20010;-81
2022/10/16 02:09:27;;;;;;;7.07;2.25;;;;;;;;;;6150432;23;20005;-81
2022/10/16 02:12:20;;;;;;;7.18;1.85;;;;;;;;;;6147823;23;20005;-80
2022/10/16 02:15:06;;;;;;;14.43;2.92;;;;;;;;;;6147447;23;20006;-70
2022/10/16 02:17:51;;;;;;;3.95;2.20;;;;;;;;;;6147541;23;20063;-80
2022/10/16 02:20:40;;;;;;;9.18;2.22;;;;;;;;;;6147139;23;20063;-78
2022/10/16 02:23:45;;;;;;;7.32;1.90;;;;;;;;;;6147653;22;20006;-81
2022/10/16 02:26:39;;;;;;;10.52;3.15;;;;;;;;;;6147315;23;20487;-78
2022/10/16 02:29:26;;;;;;;9.73;2.22;;;;;;;;;;6147303;23;20005;-78
2022/10/16 02:32:13;;;;;;;9.32;2.22;;;;;;;;;;6147420;23;20002;-69
2022/10/16 02:34:58;;;;;;;9.98;2.08;;;;;;;;;;6146835;23;20024;-72
2022/10/16 02:37:44;;;;;;;5.20;1.88;;;;;;;;;;6147576;23;20006;-78
2022/10/16 02:40:29;;;;;;;8.68;2.47;;;;;;;;;;6153844;23;20433;-78
2022/10/16 02:43:15;;;;;;;6.50;2.00;;;;;;;;;;6147287;23;20006;-81
2022/10/16 02:46:01;;;;;;;9.73;1.95;;;;;;;;;;6147521;23;20092;-77
2022/10/16 02:48:46;;;;;;;2.53;1.60;;;;;;;;;;6147846;23;20075;-78
2022/10/16 02:51:31;;;;;;;5.28;1.60;;;;;;;;;;6146788;23;20002;-79
2022/10/16 02:54:17;;;;;;;4.60;1.48;;;;;;;;;;6147182;23;20017;-69
2022/10/16 02:57:02;;;;;;;10.63;2.00;;;;;;;;;;6147196;23;20009;-70
2022/10/16 02:59:47;;;;;;;7.82;1.50;;;;;;;;;;6147154;23;20325;-69
2022/10/16 03:02:32;;;;;;;5.43;1.73;;;;;;;;;;6147338;23;20325;-71
2022/10/16 03:05:18;;;;;;;7.22;2.00;;;;;;;;;;6146983;23;20013;-69
2022/10/16 03:08:03;;;;;;;1.77;1.30;;;;;;;;;;6147594;23;20009;-70
2022/10/16 03:10:48;;;;;;;2.75;1.50;;;;;;;;;;6149774;23;20001;-71
2022/10/16 03:13:34;;;;;;;4.93;1.77;;;;;;;;;;6149643;22;20033;-71
2022/10/16 03:16:19;;;;;;;2.63;1.65;;;;;;;;;;6146601;23;20005;-71
2022/10/16 03:19:04;;;;;;;4.78;1.98;;;;;;;;;;6146561;23;19998;-71
2022/10/16 03:21:49;;;;;;;3.88;1.67;;;;;;;;;;6146479;23;20010;-70
2022/10/16 03:24:34;;;;;;;4.47;1.67;;;;;;;;;;6146826;23;20417;-71
2022/10/16 03:27:20;;;;;;;6.88;2.45;;;;;;;;;;6146310;23;20081;-77
2022/10/16 03:30:05;;;;;;;4.90;1.60;;;;;;;;;;6146868;23;20013;-77
2022/10/16 03:32:53;;;;;;;10.55;1.98;;;;;;;;;;6125796;23;20019;-72
2022/10/16 03:35:38;;;;;;;3.65;1.80;;;;;;;;;;6146493;23;20009;-70
2022/10/16 03:38:24;;;;;;;6.18;1.50;;;;;;;;;;6146237;23;20002;-72
2022/10/16 03:41:09;;;;;;;5.47;2.20;;;;;;;;;;6146499;23;20001;-70
2022/10/16 03:43:54;;;;;;;2.65;1.33;;;;;;;;;;6153612;23;20106;-71
2022/10/16 03:46:39;;;;;;;10.65;1.98;;;;;;;;;;6146315;23;20016;-68
2022/10/16 03:49:24;;;;;;;6.95;2.72;;;;;;;;;;6145973;23;20081;-79
2022/10/16 03:52:10;;;;;;;5.68;1.75;;;;;;;;;;6146768;23;20008;-77
2022/10/16 03:54:55;;;;;;;5.57;1.73;;;;;;;;;;6146520;23;20391;-79
2022/10/16 03:57:40;;;;;;;5.22;1.52;;;;;;;;;;6146707;23;20005;-79
2022/10/16 04:00:26;;;;;;;3.75;1.67;;;;;;;;;;6146767;23;20005;-79
2022/10/16 04:03:11;;;;;;;7.93;1.60;;;;;;;;;;6146656;23;20646;-79
2022/10/16 04:05:57;;;;;;;5.03;1.52;;;;;;;;;;6148506;23;20083;-82
2022/10/16 04:08:42;;;;;;;5.90;1.67;;;;;;;;;;6131686;23;20078;-79
2022/10/16 04:11:28;;;;;;;9.40;2.40;;;;;;;;;;6151588;23;20090;-78
2022/10/16 04:14:13;;;;;;;5.65;1.50;;;;;;;;;;6155149;23;20014;-78
2022/10/16 04:16:58;;;;;;;6.82;1.80;;;;;;;;;;6157516;23;20005;-78
2022/10/16 04:19:43;;;;;;;6.25;2.00;;;;;;;;;;6145780;23;20017;-77
2022/10/16 04:22:30;;;;;;;3.97;1.60;;;;;;;;;;6145922;23;20428;-72
2022/10/16 04:25:15;;;;;;;3.70;1.60;;;;;;;;;;6146057;23;20010;-79
2022/10/16 04:28:00;;;;;;;4.82;1.60;;;;;;;;;;6146392;23;20001;-71
2022/10/16 04:30:46;;;;;;;11.55;1.80;;;;;;;;;;6127264;23;20104;-72
2022/10/16 04:33:31;;;;;;;10.05;1.60;;;;;;;;;;6147897;23;20005;-71
2022/10/16 04:36:16;;;;;;;2.78;1.48;;;;;;;;;;6147312;23;20009;-72
2022/10/16 04:39:01;;;;;;;3.90;1.70;;;;;;;;;;6148281;23;20013;-72
2022/10/16 04:41:47;;;;;;;8.45;1.95;;;;;;;;;;6147782;23;20356;-79
2022/10/16 04:44:32;;;;;;;7.43;2.30;;;;;;;;;;6147677;23;20037;-71
2022/10/16 04:47:17;;;;;;;10.93;2.28;;;;;;;;;;6152838;23;20025;-71
2022/10/16 04:50:02;;;;;;;4.95;1.50;;;;;;;;;;6149069;23;20084;-72
2022/10/16 04:52:48;;;;;;;4.88;1.40;;;;;;;;;;6148226;23;20020;-71
2022/10/16 04:55:33;;;;;;;5.10;1.73;;;;;;;;;;6147833;23;20048;-71
2022/10/16 04:58:18;;;;;;;7.18;1.75;;;;;;;;;;6147941;23;20005;-70
2022/10/16 05:01:03;;;;;;;8.32;1.40;;;;;;;;;;6148024;23;20052;-70
2022/10/16 05:03:49;;;;;;;7.40;2.40;;;;;;;;;;6148145;23;20445;-77
2022/10/16 05:06:34;;;;;;;8.38;2.45;;;;;;;;;;6147616;23;20005;-77
2022/10/16 05:09:20;;;;;;;6.57;1.83;;;;;;;;;;6148027;23;20085;-77
2022/10/16 05:12:05;;;;;;;4.43;1.45;;;;;;;;;;6147886;23;20002;-78
2022/10/16 05:14:50;;;;;;;10.35;1.90;;;;;;;;;;6147925;23;20008;-78
2022/10/16 05:17:35;;;;;;;6.07;1.88;;;;;;;;;;6147510;23;20514;-80
2022/10/16 05:20:21;;;;;;;4.07;1.38;;;;;;;;;;6155069;23;20014;-70
2022/10/16 05:23:07;;;;;;;9.48;1.60;;;;;;;;;;6126144;23;20002;-72
2022/10/16 05:25:58;;;;;;;8.23;2.42;;;;;;;;;;6147597;23;20013;-72
2022/10/16 05:28:43;;;;;;;10.70;1.75;;;;;;;;;;6147864;23;20006;-73
2022/10/16 05:31:28;;;;;;;12.70;1.65;;;;;;;;;;6147409;23;20013;-72
2022/10/16 05:34:13;;;;;;;9.98;2.55;;;;;;;;;;6147217;23;20017;-69
2022/10/16 05:36:58;;;;;;;9.20;1.42;;;;;;;;;;6147493;23;20001;-68
2022/10/16 05:39:44;;;;;;;4.68;1.55;;;;;;;;;;6147258;23;20012;-68
2022/10/16 05:42:29;;;;;;;9.48;2.10;;;;;;;;;;6147315;23;20009;-70
2022/10/16 05:45:14;;;;;;;12.27;2.05;;;;;;;;;;6147296;23;20009;-69
2022/10/16 05:48:00;;;;;;;4.70;1.80;;;;;;;;;;6146983;23;20483;-69
2022/10/16 05:50:45;;;;;;;7.22;2.28;;;;;;;;;;6149799;23;20010;-70
2022/10/16 05:53:32;;;;;;;10.18;2.00;;;;;;;;;;6150654;23;20317;-67
2022/10/16 05:56:17;;;;;;;6.32;2.33;;;;;;;;;;6146513;23;20032;-73
2022/10/16 05:59:03;;;;;;;7.00;1.70;;;;;;;;;;6146998;23;20127;-71
2022/10/16 06:01:48;;;;;;;2.92;1.52;;;;;;;;;;6147012;23;20006;-71
2022/10/16 06:04:34;;;;;;;9.48;2.38;;;;;;;;;;6146680;23;20008;-70
2022/10/16 06:07:19;;;;;;;4.45;2.08;;;;;;;;;;6146717;23;20498;-70
2022/10/16 06:10:05;;;;;;;6.22;1.55;;;;;;;;;;6146939;23;20041;-72
2022/10/16 06:12:50;;;;;;;9.55;2.05;;;;;;;;;;6146609;23;20006;-70
2022/10/16 06:15:35;;;;;;;5.43;1.70;;;;;;;;;;6146833;23;20006;-75
2022/10/16 06:18:20;;;;;;;6.53;2.10;;;;;;;;;;6146554;23;20176;-70
2022/10/16 06:21:14;;;;;;;5.80;1.98;;;;;;;;;;6146891;23;20006;-72
2022/10/16 06:23:59;;;;;;;8.25;3.05;;;;;;;;;;6154096;23;20028;-71
2022/10/16 06:26:44;;;;;;;3.97;2.25;;;;;;;;;;6126567;23;20045;-72
2022/10/16 06:29:30;;;;;;;12.45;2.00;;;;;;;;;;6146733;23;20495;-71
2022/10/16 06:32:15;;;;;;;12.07;2.40;;;;;;;;;;6146701;23;20433;-72
2022/10/16 06:35:00;;;;;;;7.53;2.20;;;;;;;;;;6146372;22;20013;-77
2022/10/16 06:37:45;;;;;;;9.93;3.70;;;;;;;;;;6146849;23;20006;-78
2022/10/16 06:40:30;;;;;;;3.67;1.95;;;;;;;;;;6146733;23;20010;-78
2022/10/16 06:43:16;;;;;;;6.22;1.92;;;;;;;;;;6146906;23;20005;-79
2022/10/16 06:46:01;;;;;;;6.68;2.25;;;;;;;;;;6146617;23;20437;-78
2022/10/16 06:48:47;;;;;;;8.38;2.20;;;;;;;;;;6146944;23;20036;-78
2022/10/16 06:51:34;;;;;;;7.95;2.30;;;;;;;;;;6146109;23;20088;-71
2022/10/16 06:54:19;;;;;;;9.63;2.35;;;;;;;;;;6147810;23;20117;-78
2022/10/16 06:57:04;;;;;;;4.50;1.88;;;;;;;;;;6131580;23;20378;-80
2022/10/16 06:59:50;;;;;;;5.32;1.80;;;;;;;;;;6146491;23;20020;-77
2022/10/16 07:02:35;;;;;;;6.60;1.85;;;;;;;;;;6146661;23;20088;-77
2022/10/16 07:05:20;;;;;;;4.70;1.77;;;;;;;;;;6146389;23;20005;-77
2022/10/16 07:08:05;;;;;;;6.93;2.30;;;;;;;;;;6146594;23;20178;-80
2022/10/16 07:10:57;;;;;;;11.30;3.50;;;;;;;;;;6146169;23;20413;-80
2022/10/16 07:13:43;;;;;;;8.15;2.33;;;;;;;;;;6146036;23;20016;-71
2022/10/16 07:16:29;;;;;;;3.70;1.85;;;;;;;;;;6146645;23;20089;-70
2022/10/16 07:19:17;;;;;;;7.50;2.63;;;;;;;;;;6142773;23;20059;-69
2022/10/16 07:22:02;;;;;;;11.50;2.80;;;;;;;;;;6142585;23;20020;-71
2022/10/16 07:24:48;;;;;;;10.25;2.78;;;;;;;;;;6142261;23;20009;-67
2022/10/16 07:27:34;;;;;;;9.05;2.00;;;;;;;;;;6150044;23;20002;-80
2022/10/16 07:30:19;;;;;;;13.80;2.53;;;;;;;;;;6146848;23;20004;-79
2022/10/16 07:33:04;;;;;;;14.75;1.95;;;;;;;;;;6146156;23;20005;-81
2022/10/16 07:35:53;;;;;;;8.43;2.03;;;;;;;;;;6146294;23;20139;-79
2022/10/16 07:38:39;;;;;;;5.60;1.80;;;;;;;;;;6146533;23;20032;-80
2022/10/16 07:41:24;;;;;;;5.88;2.00;;;;;;;;;;6145967;23;20008;-79
2022/10/16 07:44:09;;;;;;;7.93;2.13;;;;;;;;;;6146321;23;20451;-80
2022/10/16 07:46:54;;;;;;;13.52;2.42;;;;;;;;;;6145655;23;20076;-79
2022/10/16 07:49:40;;;;;;;10.18;2.80;;;;;;;;;;6145879;23;20064;-80
2022/10/16 07:52:25;;;;;;;6.65;2.10;;;;;;;;;;6146300;23;20001;-81
2022/10/16 07:55:10;;;;;;;5.25;1.80;;;;;;;;;;6145917;23;20009;-79
2022/10/16 07:57:55;;;;;;;9.57;2.65;;;;;;;;;;6145888;23;20071;-78
2022/10/16 08:00:40;;;;;;;6.25;2.10;;;;;;;;;;6152652;23;19998;-79
2022/10/16 08:03:26;;;;;;;5.60;2.10;;;;;;;;;;6145566;23;20005;-72
2022/10/16 08:06:11;;;;;;;5.97;2.00;;;;;;;;;;6145973;23;20001;-72
2022/10/16 08:08:56;;;;;;;17.83;3.22;;;;;;;;;;6145815;23;20005;-72
2022/10/16 08:11:41;;;;;;;18.90;3.33;;;;;;;;;;6145973;23;20031;-72
2022/10/16 08:14:27;;;;;;;9.85;2.25;;;;;;;;;;6145589;23;20009;-72
2022/10/16 08:17:13;;;;;;;13.45;3.00;;;;;;;;;;6146044;23;20006;-71
2022/10/16 08:19:58;;;;;;;7.07;2.15;;;;;;;;;;6145699;23;20302;-71
2022/10/16 08:22:43;;;;;;;12.70;2.47;;;;;;;;;;6145763;23;20085;-70
2022/10/16 08:25:29;;;;;;;7.90;2.20;;;;;;;;;;6146030;23;20091;-68
2022/10/16 08:28:15;;;;;;;5.18;2.03;;;;;;;;;;6145566;23;20013;-69
2022/10/16 08:31:14;;;;;;;6.70;2.17;;;;;;;;;;6149270;23;20098;-70
2022/10/16 08:33:59;;;;;;;8.85;2.15;;;;;;;;;;6147331;23;20028;-68
2022/10/16 08:36:44;;;;;;;5.85;2.00;;;;;;;;;;6125322;23;20413;-68
2022/10/16 08:39:29;;;;;;;4.45;1.77;;;;;;;;;;6145763;23;20017;-69
2022/10/16 08:42:30;;;;;;;11.90;2.95;;;;;;;;;;6146106;23;20012;-71
2022/10/16 08:45:31;;;;;;;6.15;2.05;;;;;;;;;;6146125;23;20014;-77
2022/10/16 08:48:23;;;;;;;6.38;2.08;;;;;;;;;;6146715;23;20002;-79
2022/10/16 08:51:11;;;;;;;8.38;2.38;;;;;;;;;;6146446;23;20016;-79
2022/10/16 08:53:57;;;;;;;15.00;3.00;;;;;;;;;;6146306;23;20037;-80
2022/10/16 08:56:42;;;;;;;6.38;2.13;;;;;;;;;;6146639;23;20009;-79
2022/10/16 08:59:27;;;;;;;15.98;2.42;;;;;;;;;;6146561;23;20333;-67
2022/10/16 09:02:23;;;;;;;8.95;1.80;;;;;;;;;;6146202;23;20005;-81
2022/10/16 09:05:29;;;;;;;4.03;1.50;;;;;;;;;;6151651;23;20089;-78
2022/10/16 09:08:27;;;;;;;5.13;1.60;;;;;;;;;;6153124;23;19997;-77
2022/10/16 09:11:16;;;;;;;4.63;1.35;;;;;;;;;;6159509;23;20006;-80
2022/10/16 09:14:10;;;;;;;7.40;1.97;;;;;;;;;;6156791;23;20009;-78
2022/10/16 09:16:58;;;;;;;4.78;1.75;;;;;;;;;;6147611;23;20006;-80
2022/10/16 09:19:46;;;;;;;3.30;1.63;;;;;;;;;;6147834;23;20310;-72
2022/10/16 09:22:31;;;;;;;10.57;2.60;;;;;;;;;;6127918;23;20009;-80
2022/10/16 09:25:20;;;;;;;8.70;1.80;;;;;;;;;;6148557;23;20009;-80
2022/10/16 09:28:05;;;;;;;5.90;1.77;;;;;;;;;;6148916;23;20024;-80
2022/10/16 09:30:50;;;;;;;5.82;1.80;;;;;;;;;;6148679;23;20079;-78
2022/10/16 09:33:37;;;;;;;9.77;1.70;;;;;;;;;;6148601;23;20028;-80
2022/10/16 09:36:23;;;;;;;7.28;1.88;;;;;;;;;;6154588;23;20081;-68
2022/10/16 09:39:11;;;;;;;8.98;2.15;;;;;;;;;;6147700;23;20040;-80
2022/10/16 09:41:56;;;;;;;8.52;1.45;;;;;;;;;;6127150;23;20101;-80
2022/10/16 09:44:42;;;;;;;7.70;1.90;;;;;;;;;;6147660;23;20008;-81
2022/10/16 09:47:28;;;;;;;8.20;2.00;;;;;;;;;;6148605;23;20006;-80
2022/10/16 09:50:22;;;;;;;7.95;2.28;;;;;;;;;;6148473;23;20020;-80
2022/10/16 09:53:14;;;;;;;8.98;2.35;;;;;;;;;;6127542;23;20016;-83
2022/10/16 09:55:59;;;;;;;7.57;2.22;;;;;;;;;;6147909;23;20013;-71
2022/10/16 09:58:49;;;;;;;6.95;1.63;;;;;;;;;;6129059;23;19998;-79
2022/10/16 10:01:38;;;;;;;3.45;1.52;;;;;;;;;;6149172;23;20046;-82
2022/10/16 10:04:25;;;;;;;11.80;2.63;;;;;;;;;;6147822;23;20010;-80
2022/10/16 10:07:18;;;;;;;9.55;3.08;;;;;;;;;;6152585;23;20010;-79
2022/10/16 10:10:05;;;;;;;6.97;1.83;;;;;;;;;;6149268;23;20009;-81
2022/10/16 10:12:50;;;;;;;16.15;1.90;;;;;;;;;;6147332;23;20005;-72
2022/10/16 10:15:41;;;;;;;2.33;1.60;;;;;;;;;;6146755;23;20085;-70
2022/10/16 10:18:26;;;;;;;4.53;1.55;;;;;;;;;;6147005;23;20002;-70
2022/10/16 10:21:15;;;;;;;3.80;1.50;;;;;;;;;;6146206;23;20384;-70
2022/10/16 10:24:00;;;;;;;15.15;1.83;;;;;;;;;;6145878;22;20002;-70
2022/10/16 10:26:59;;;;;;;3.83;1.42;;;;;;;;;;6145716;23;20040;-70
2022/10/16 10:29:44;;;;;;;;;;;;;;;;;;6146973;23;20014;-70
2022/10/16 10:32:53;;;;;;;2.13;1.20;;;;;;;;;;6146904;22;19975;-72
2022/10/16 10:35:56;;;;;;;16.98;2.15;;;;;;;;;;6167556;23;20314;-69
2022/10/16 10:39:01;;;;;;;7.20;1.88;;;;;;;;;;6148123;23;19994;-71
2022/10/16 10:41:52;;;;;;;7.28;1.50;;;;;;;;;;6149997;23;20006;-70
2022/10/16 10:44:47;;;;;;;10.20;1.92;;;;;;;;;;6146575;23;20043;-70
2022/10/16 10:47:38;;;;;;;15.48;1.83;;;;;;;;;;6146883;23;20021;-70
2022/10/16 10:50:33;;;;;;;16.33;2.00;;;;;;;;;;6145735;23;20009;-79
2022/10/16 10:53:27;;;;;;;9.90;2.30;;;;;;;;;;6146794;23;20085;-81
2022/10/16 10:56:25;;;;;;;7.30;1.25;;;;;;;;;;6146979;23;20047;-80
2022/10/16 10:59:25;;;;;;;15.82;2.70;;;;;;;;;;6146801;23;20010;-78
2022/10/16 11:02:32;;;;;;;6.55;1.60;;;;;;;;;;6147130;23;20092;-77
2022/10/16 11:05:24;;;;;;;5.38;1.25;;;;;;;;;;6146513;23;20010;-78
2022/10/16 11:08:10;;;;;;;4.88;1.73;;;;;;;;;;6146837;23;20035;-69
2022/10/16 11:10:58;;;;;;;4.82;1.30;;;;;;;;;;6149459;23;20005;-73
2022/10/16 11:14:03;;;;;;;8.10;2.00;;;;;;;;;;6149417;23;20062;-71
2022/10/16 11:16:52;;;;;;;11.88;2.17;;;;;;;;;;6146632;23;20151;-72
2022/10/16 11:19:58;;;;;;;8.52;1.55;;;;;;;;;;6146716;23;20323;-72
2022/10/16 11:22:54;;;;;;;9.50;1.70;;;;;;;;;;6146457;23;20298;-70
2022/10/16 11:25:40;;;;;;;4.53;1.42;;;;;;;;;;6146162;23;20006;-70
2022/10/16 11:28:32;;;;;;;9.68;1.85;;;;;;;;;;6146625;23;20056;-70
2022/10/16 11:31:36;;;;;;;5.07;1.55;;;;;;;;;;6125607;23;20045;-72
2022/10/16 11:34:25;;;;;;;9.63;1.40;;;;;;;;;;6146858;23;20013;-71
2022/10/16 11:37:13;;;;;;;7.55;1.58;;;;;;;;;;6146067;23;20009;-70
2022/10/16 11:40:14;;;;;;;9.02;1.55;;;;;;;;;;6146622;23;20066;-69
2022/10/16 11:43:26;;;;;;;3.90;1.33;;;;;;;;;;6149076;23;20339;-71
2022/10/16 11:46:15;;;;;;;3.67;1.50;;;;;;;;;;6163142;23;20009;-69
2022/10/16 11:49:03;;;;;;;7.90;1.10;;;;;;;;;;6146536;23;20013;-72
2022/10/16 11:51:55;;;;;;;8.77;1.77;;;;;;;;;;6145667;23;20005;-70
2022/10/16 11:54:53;;;;;;;3.03;1.30;;;;;;;;;;6145947;23;20433;-71
2022/10/16 11:57:42;;;;;;;3.45;1.38;;;;;;;;;;6146103;23;20058;-71
2022/10/16 12:00:28;;;;;;;3.67;2.27;;;;;;;;;;6146358;23;20017;-72
2022/10/16 12:03:32;;;;;;;2.95;1.42;;;;;;;;;;6146154;23;20089;-79
2022/10/16 12:06:33;;;;;;;12.60;1.80;;;;;;;;;;6125660;23;20044;-80
2022/10/16 12:09:29;;;;;;;7.60;1.50;;;;;;;;;;6146516;23;20033;-79
2022/10/16 12:12:33;;;;;;;3.83;1.48;;;;;;;;;;6146023;23;20005;-77
2022/10/16 12:15:20;;;;;;;6.53;1.00;;;;;;;;;;6129569;23;20010;-79
2022/10/16 12:18:07;;;;;;;13.02;1.42;;;;;;;;;;6147994;23;20005;-78
2022/10/16 12:20:58;;;;;;;9.23;1.65;;;;;;;;;;6145983;23;20014;-80
2022/10/16 12:23:50;;;;;;;6.47;1.30;;;;;;;;;;6146092;23;20006;-70
2022/10/16 12:26:38;;;;;;;5.45;1.27;;;;;;;;;;6145683;23;20010;-72
2022/10/16 12:29:52;;;;;;;5.47;1.23;;;;;;;;;;6146333;23;20041;-72
2022/10/16 12:32:39;;;;;;;3.53;1.73;;;;;;;;;;6147396;22;20013;-72
2022/10/16 12:35:26;;;;;;;3.65;1.50;;;;;;;;;;6141875;23;20116;-69
2022/10/16 12:38:17;;;;;;;4.28;1.20;;;;;;;;;;6141837;23;20055;-72
2022/10/16 12:41:04;;;;;;;3.13;1.20;;;;;;;;;;6144346;23;20345;-68
2022/10/16 12:43:49;;;;;;;4.10;1.40;;;;;;;;;;6145388;23;20002;-69
2022/10/16 12:46:38;;;;;;;4.25;1.20;;;;;;;;;;6146297;23;20302;-71
2022/10/16 12:49:32;;;;;;;8.48;1.58;;;;;;;;;;6152144;23;20017;-69
2022/10/16 12:52:27;;;;;;;7.88;1.70;;;;;;;;;;6148365;23;20009;-71
2022/10/16 12:55:16;;;;;;;4.80;1.40;;;;;;;;;;6148066;23;20014;-71
2022/10/16 12:58:16;;;;;;;5.97;1.80;;;;;;;;;;6148322;23;20436;-69
2022/10/16 13:01:09;;;;;;;10.23;1.55;;;;;;;;;;6148635;23;20041;-80
2022/10/16 13:04:18;;;;;;;13.85;2.75;;;;;;;;;;6152068;23;20012;-81
2022/10/16 13:07:15;;;;;;;12.20;2.50;;;;;;;;;;6153676;23;20050;-81
2022/10/16 13:10:29;;;;;;;10.38;1.85;;;;;;;;;;6155666;23;20010;-82
2022/10/16 13:13:36;;;;;;;16.52;2.75;;;;;;;;;;6161697;22;20107;-82
2022/10/16 13:16:40;;;;;;;15.70;2.35;;;;;;;;;;6159868;23;20059;-73
2022/10/16 13:19:32;;;;;;;9.75;1.65;;;;;;;;;;6152703;23;20008;-82
2022/10/16 13:22:23;;;;;;;7.55;2.00;;;;;;;;;;6153785;23;20044;-81
2022/10/16 13:25:23;;;;;;;9.05;1.67;;;;;;;;;;6150193;23;20329;-81
2022/10/16 13:28:10;;;;;;;12.32;2.13;;;;;;;;;;6149287;23;20060;-80
2022/10/16 13:30:59;;;;;;;13.45;1.83;;;;;;;;;;6147731;23;20010;-82
2022/10/16 13:33:50;;;;;;;7.53;1.25;;;;;;;;;;6147643;23;20529;-81
2022/10/16 13:36:43;;;;;;;13.13;2.50;;;;;;;;;;6147351;23;20010;-72
2022/10/16 13:39:29;;;;;;;11.88;1.90;;;;;;;;;;6147481;23;20013;-70
2022/10/16 13:42:23;;;;;;;4.93;2.13;;;;;;;;;;6147451;23;20082;-68
2022/10/16 13:45:17;;;;;;;6.35;2.13;;;;;;;;;;6147033;23;20010;-70
2022/10/16 13:48:09;;;;;;;26.05;3.35;;;;;;;;;;6147132;23;20140;-70
2022/10/16 13:51:12;;;;;;;9.68;2.30;;;;;;;;;;6148466;23;20012;-70
2022/10/16 13:53:57;;;;;;;10.15;1.80;;;;;;;;;;6149900;23;20515;-73
2022/10/16 13:56:43;;;;;;;11.05;1.60;;;;;;;;;;6147864;23;20024;-86
2022/10/16 13:59:35;;;;;;;6.28;1.70;;;;;;;;;;6149165;23;20425;-85
2022/10/16 14:02:29;;;;;;;11.00;3.08;;;;;;;;;;6148080;23;20044;-86
2022/10/16 14:05:14;;;;;;;9.13;2.00;;;;;;;;;;6129277;23;20008;-84
2022/10/16 14:07:59;;;;;;;9.52;2.17;;;;;;;;;;6165014;22;20121;-86
2022/10/16 14:10:49;;;;;;;9.15;3.35;;;;;;;;;;6155874;23;20005;-84
2022/10/16 14:13:39;;;;;;;13.65;3.72;;;;;;;;;;6153614;23;20006;-76
2022/10/16 14:16:29;;;;;;;15.32;3.28;;;;;;;;;;6147540;23;20060;-71
2022/10/16 14:19:17;;;;;;;16.73;4.05;;;;;;;;;;6147310;23;20067;-72
2022/10/16 14:22:22;;;;;;;11.10;3.53;;;;;;;;;;6126426;23;20336;-73
2022/10/16 14:25:21;;;;;;;12.18;3.03;;;;;;;;;;6152601;23;20407;-72
2022/10/16 14:28:09;;;;;;;13.02;2.75;;;;;;;;;;6146899;22;20010;-71
2022/10/16 14:30:56;;;;;;;12.75;2.67;;;;;;;;;;6146935;23;20006;-85
2022/10/16 14:33:41;;;;;;;13.57;2.30;;;;;;;;;;6146174;23;20010;-72
2022/10/16 14:36:28;;;;;;;10.25;3.13;;;;;;;;;;6126272;23;20364;-73
2022/10/16 14:39:20;;;;;;;14.65;2.90;;;;;;;;;;6146863;23;20037;-72
2022/10/16 14:42:13;;;;;;;15.32;3.25;;;;;;;;;;6147002;23;20008;-71
2022/10/16 14:44:59;;;;;;;10.75;3.05;;;;;;;;;;6146615;23;20010;-71
2022/10/16 14:47:53;;;;;;;10.55;2.78;;;;;;;;;;6146596;23;20004;-74
2022/10/16 14:50:38;;;;;;;9.75;2.35;;;;;;;;;;6146765;23;20006;-71
2022/10/16 14:53:23;;;;;;;10.40;2.65;;;;;;;;;;6146641;23;20005;-71
2022/10/16 14:56:14;;;;;;;9.45;2.17;;;;;;;;;;6153618;23;20001;-72
2022/10/16 14:59:00;;;;;;;7.20;2.72;;;;;;;;;;6146419;23;20456;-71
2022/10/16 15:01:46;;;;;;;9.73;2.90;;;;;;;;;;6146662;23;20013;-72
2022/10/16 15:04:31;;;;;;;14.98;2.53;;;;;;;;;;6146763;23;20044;-73
2022/10/16 15:07:16;;;;;;;14.55;3.47;;;;;;;;;;6146504;23;20024;-72
2022/10/16 15:10:01;;;;;;;20.27;5.05;;;;;;;;;;6146624;23;20032;-70
2022/10/16 15:12:47;;;;;;;23.42;3.95;;;;;;;;;;6146618;23;20005;-68
2022/10/16 15:15:37;;;;;;;20.17;3.90;;;;;;;;;;6146083;23;20017;-68
2022/10/16 15:18:22;;;;;;;6.53;2.15;;;;;;;;;;6146785;23;20086;-68
2022/10/16 15:21:08;;;;;;;14.18;2.47;;;;;;;;;;6146155;23;20473;-68
2022/10/16 15:23:53;;;;;;;14.32;2.83;;;;;;;;;;6146437;23;20014;-68
2022/10/16 15:26:39;;;;;;;26.95;5.72;;;;;;;;;;6148155;23;20001;-81
2022/10/16 15:29:24;;;;;;;14.77;3.80;;;;;;;;;;6151493;23;20033;-71
2022/10/16 15:32:10;;;;;;;13.32;2.85;;;;;;;;;;6125986;23;20010;-71
2022/10/16 15:34:55;;;;;;;17.85;2.90;;;;;;;;;;6146165;23;20437;-73
2022/10/16 15:37:40;;;;;;;28.45;3.15;;;;;;;;;;6146516;23;20077;-71
2022/10/16 15:40:25;;;;;;;11.30;2.75;;;;;;;;;;6146463;23;20033;-71
2022/10/16 15:43:11;;;;;;;18.88;3.67;;;;;;;;;;6125747;23;20005;-71
2022/10/16 15:46:01;;;;;;;14.27;3.38;;;;;;;;;;6146689;23;20021;-74
2022/10/16 15:48:47;;;;;;;17.30;3.70;;;;;;;;;;6125998;23;20176;-70
2022/10/16 15:51:33;;;;;;;9.88;4.18;;;;;;;;;;6146003;23;20002;-72
2022/10/16 15:54:21;;;;;;;9.43;4.25;;;;;;;;;;6146329;23;20080;-71
2022/10/16 15:57:06;;;;;;;12.63;3.40;;;;;;;;;;6146166;23;20006;-71
2022/10/16 15:59:52;;;;;;;13.07;4.07;;;;;;;;;;6131410;23;20016;-71
2022/10/16 16:02:37;;;;;;;16.42;4.53;;;;;;;;;;6146303;23;20063;-87
2022/10/16 16:05:22;;;;;;;15.15;2.25;;;;;;;;;;6146288;23;20002;-69
2022/10/16 16:08:08;;;;;;;13.38;2.90;;;;;;;;;;6146199;23;20013;-68
2022/10/16 16:10:57;;;;;;;11.15;2.78;;;;;;;;;;6146210;23;20006;-68
2022/10/16 16:13:42;;;;;;;10.10;3.00;;;;;;;;;;6145988;23;20396;-68
2022/10/16 16:16:28;;;;;;;4.78;2.60;;;;;;;;;;6146199;23;20013;-68
2022/10/16 16:19:15;;;;;;;10.35;3.28;;;;;;;;;;6146305;23;20013;-68
2022/10/16 16:22:01;;;;;;;9.50;3.15;;;;;;;;;;6146223;23;20010;-67
2022/10/16 16:24:46;;;;;;;14.85;2.63;;;;;;;;;;6148728;23;20005;-70
2022/10/16 16:27:33;;;;;;;13.80;3.33;;;;;;;;;;6149054;23;20010;-69
2022/10/16 16:30:20;;;;;;;11.65;3.55;;;;;;;;;;6150003;23;20044;-70
2022/10/16 16:33:05;;;;;;;16.45;2.92;;;;;;;;;;6155237;23;20444;-70
2022/10/16 16:35:50;;;;;;;12.82;2.97;;;;;;;;;;6149190;23;20422;-69
2022/10/16 16:38:35;;;;;;;13.85;3.85;;;;;;;;;;6149705;23;20037;-70
2022/10/16 16:41:22;;;;;;;14.32;2.95;;;;;;;;;;6149629;23;20029;-69
2022/10/16 16:44:10;;;;;;;46.45;15.75;;;;;;;;;;6148680;23;20010;-69